Time,TemperatureF,DewpointF,PressureIn,WindDirection,WindDirectionDegrees,WindSpeedMPH,WindSpeedGustMPH,Humidity,HourlyPrecipIn,Conditions,Clouds,dailyrainin,SoftwareType,DateUTC
2013-02-26 00:00:00,26.1,22.0,30.14,ENE,74,0.0,0.0,85,0.00,,,0.00,weatherlink.com 1.10,2013-02-26 05:00:00,
2013-02-26 00:16:00,26.5,23.0,30.14,ESE,123,0.0,2.0,85,0.00,,,0.00,weatherlink.com 1.10,2013-02-26 05:16:00,
2013-02-26 00:31:00,26.5,23.0,30.14,ESE,108,0.0,1.0,85,0.00,,,0.00,weatherlink.com 1.10,2013-02-26 05:31:00,
2013-02-26 00:46:00,26.1,22.0,30.14,East,80,0.0,1.0,85,0.00,,,0.00,weatherlink.com 1.10,2013-02-26 05:46:00,
2013-02-26 01:01:00,25.3,22.0,30.13,East,80,0.0,0.0,88,0.00,,,0.00,weatherlink.com 1.10,2013-02-26 06:01:00,
2013-02-26 01:16:00,24.4,21.0,30.13,East,80,0.0,0.0,87,0.00,,,0.00,weatherlink.com 1.10,2013-02-26 06:16:00,
2013-02-26 01:31:00,23.6,21.0,30.13,East,80,0.0,0.0,89,0.00,,,0.00,weatherlink.com 1.10,2013-02-26 06:31:00,
2013-02-26 01:46:00,23.5,21.0,30.12,ENE,60,0.0,0.0,90,0.00,,,0.00,weatherlink.com 1.10,2013-02-26 06:46:00,
2013-02-26 02:01:00,23.7,22.0,30.11,ESE,103,0.0,2.0,91,0.00,,,0.00,weatherlink.com 1.10,2013-02-26 07:01:00,
2013-02-26 02:16:00,24.8,22.0,30.11,ESE,108,0.0,2.0,89,0.00,,,0.00,weatherlink.com 1.10,2013-02-26 07:16:00,
2013-02-26 02:31:00,25.0,22.0,30.12,ENE,77,0.0,2.0,88,0.00,,,0.00,weatherlink.com 1.10,2013-02-26 07:31:00,
2013-02-26 02:46:00,24.4,22.0,30.12,East,96,0.0,1.0,89,0.00,,,0.00,weatherlink.com 1.10,2013-02-26 07:46:00,
2013-02-26 03:01:00,24.0,22.0,30.11,ENE,77,0.0,0.0,90,0.00,,,0.00,weatherlink.com 1.10,2013-02-26 08:01:00,
2013-02-26 03:16:00,24.2,22.0,30.11,East,93,0.0,2.0,91,0.00,,,0.00,weatherlink.com 1.10,2013-02-26 08:16:00,
2013-02-26 03:31:00,24.2,22.0,30.10,NE,39,0.0,3.0,90,0.00,,,0.00,weatherlink.com 1.10,2013-02-26 08:31:00,
2013-02-26 03:46:00,24.7,22.0,30.10,ENE,69,0.0,2.0,90,0.00,,,0.00,weatherlink.com 1.10,2013-02-26 08:46:00,
2013-02-26 04:01:00,25.0,22.0,30.09,SSE,150,0.0,5.0,89,0.00,,,0.00,weatherlink.com 1.10,2013-02-26 09:01:00,
2013-02-26 04:16:00,25.3,22.0,30.07,NNE,25,3.0,6.0,88,0.00,,,0.00,weatherlink.com 1.10,2013-02-26 09:16:00,
2013-02-26 04:31:00,25.7,22.0,30.07,East,98,1.0,6.0,87,0.00,,,0.00,weatherlink.com 1.10,2013-02-26 09:31:00,
2013-02-26 04:46:00,26.1,23.0,30.06,ENE,63,0.0,6.0,86,0.00,,,0.00,weatherlink.com 1.10,2013-02-26 09:46:00,
2013-02-26 05:01:00,26.6,23.0,30.06,ENE,73,1.0,8.0,85,0.00,,,0.00,weatherlink.com 1.10,2013-02-26 10:01:00,
2013-02-26 05:16:00,26.9,23.0,30.06,East,86,1.0,7.0,84,0.00,,,0.00,weatherlink.com 1.10,2013-02-26 10:16:00,
2013-02-26 05:31:00,26.8,22.0,30.04,NNE,15,1.0,7.0,83,0.00,,,0.00,weatherlink.com 1.10,2013-02-26 10:31:00,
2013-02-26 05:46:00,26.9,22.0,30.03,NE,39,2.0,4.0,83,0.00,,,0.00,weatherlink.com 1.10,2013-02-26 10:46:00,
2013-02-26 06:01:00,27.0,23.0,30.02,NE,37,2.0,7.0,83,0.00,,,0.00,weatherlink.com 1.10,2013-02-26 11:01:00,
2013-02-26 06:16:00,27.2,22.0,30.01,NE,41,2.0,9.0,82,0.00,,,0.00,weatherlink.com 1.10,2013-02-26 11:16:00,
2013-02-26 06:31:00,27.2,22.0,30.01,East,91,4.0,6.0,82,0.00,,,0.00,weatherlink.com 1.10,2013-02-26 11:31:00,
2013-02-26 06:46:00,27.5,23.0,30.02,NE,36,2.0,10.0,82,0.00,,,0.00,weatherlink.com 1.10,2013-02-26 11:46:00,
2013-02-26 07:01:00,27.7,23.0,30.00,SE,139,1.0,8.0,81,0.00,,,0.00,weatherlink.com 1.10,2013-02-26 12:01:00,
2013-02-26 07:17:00,27.9,23.0,30.01,ENE,66,5.0,7.0,81,0.00,,,0.00,weatherlink.com 1.10,2013-02-26 12:17:00,
2013-02-26 07:32:00,28.2,23.0,30.02,North,8,3.0,8.0,80,0.00,,,0.00,weatherlink.com 1.10,2013-02-26 12:32:00,
2013-02-26 07:47:00,28.1,23.0,30.01,ENE,63,2.0,7.0,81,0.00,,,0.00,weatherlink.com 1.10,2013-02-26 12:47:00,
2013-02-26 08:02:00,28.2,23.0,30.01,East,81,0.0,5.0,81,0.00,,,0.00,weatherlink.com 1.10,2013-02-26 13:02:00,
2013-02-26 08:17:00,28.5,23.0,30.01,SE,138,1.0,8.0,81,0.00,,,0.00,weatherlink.com 1.10,2013-02-26 13:17:00,
2013-02-26 08:32:00,28.9,24.0,30.00,East,93,3.0,10.0,81,0.00,,,0.00,weatherlink.com 1.10,2013-02-26 13:32:00,
2013-02-26 08:47:00,29.2,24.0,29.99,East,89,0.0,7.0,81,0.00,,,0.00,weatherlink.com 1.10,2013-02-26 13:47:00,
2013-02-26 09:02:00,29.6,24.0,29.99,ESE,107,1.0,9.0,80,0.00,,,0.00,weatherlink.com 1.10,2013-02-26 14:02:00,
2013-02-26 09:17:00,30.0,24.0,29.98,East,88,3.0,8.0,79,0.00,,,0.00,weatherlink.com 1.10,2013-02-26 14:17:00,
2013-02-26 09:32:00,30.4,24.0,29.98,ENE,62,6.0,13.0,78,0.00,,,0.00,weatherlink.com 1.10,2013-02-26 14:32:00,
2013-02-26 09:47:00,30.8,24.0,29.96,NNE,12,4.0,11.0,77,0.00,,,0.00,weatherlink.com 1.10,2013-02-26 14:47:00,
2013-02-26 10:02:00,31.1,24.0,29.95,NE,53,4.0,12.0,76,0.00,,,0.00,weatherlink.com 1.10,2013-02-26 15:02:00,
2013-02-26 10:17:00,31.3,25.0,29.92,ENE,69,5.0,10.0,76,0.00,,,0.00,weatherlink.com 1.10,2013-02-26 15:17:00,
2013-02-26 10:32:00,31.6,25.0,29.91,East,98,5.0,12.0,76,0.00,,,0.00,weatherlink.com 1.10,2013-02-26 15:32:00,
2013-02-26 10:47:00,31.8,25.0,29.90,East,80,4.0,12.0,76,0.00,,,0.00,weatherlink.com 1.10,2013-02-26 15:47:00,
2013-02-26 11:02:00,32.3,25.0,29.89,ESE,103,6.0,9.0,75,0.00,,,0.00,weatherlink.com 1.10,2013-02-26 16:02:00,
2013-02-26 11:17:00,32.8,26.0,29.89,NNE,12,2.0,13.0,75,0.00,,,0.00,weatherlink.com 1.10,2013-02-26 16:17:00,
2013-02-26 11:32:00,33.2,26.0,29.87,East,99,5.0,10.0,74,0.00,,,0.00,weatherlink.com 1.10,2013-02-26 16:32:00,
2013-02-26 11:47:00,33.2,26.0,29.87,East,86,3.0,13.0,74,0.00,,,0.00,weatherlink.com 1.10,2013-02-26 16:47:00,
2013-02-26 12:02:00,33.5,26.0,29.86,West,264,2.0,13.0,75,0.00,,,0.00,weatherlink.com 1.10,2013-02-26 17:02:00,
2013-02-26 12:17:00,33.8,26.0,29.86,ENE,60,6.0,17.0,74,0.00,,,0.00,weatherlink.com 1.10,2013-02-26 17:17:00,
2013-02-26 12:32:00,34.2,27.0,29.85,WNW,294,4.0,14.0,74,0.00,,,0.00,weatherlink.com 1.10,2013-02-26 17:32:00,
2013-02-26 12:48:00,34.8,27.0,29.83,NE,53,3.0,12.0,73,0.00,,,0.00,weatherlink.com 1.10,2013-02-26 17:48:00,
2013-02-26 13:04:00,35.1,27.0,29.81,ENE,75,2.0,12.0,72,0.00,,,0.00,weatherlink.com 1.10,2013-02-26 18:04:00,
2013-02-26 13:18:00,35.5,27.0,29.80,East,84,10.0,16.0,71,0.00,,,0.00,weatherlink.com 1.10,2013-02-26 18:18:00,
2013-02-26 13:33:00,35.7,27.0,29.78,NW,326,7.0,17.0,71,0.00,,,0.00,weatherlink.com 1.10,2013-02-26 18:33:00,
2013-02-26 13:48:00,36.0,28.0,29.77,East,90,15.0,16.0,72,0.00,,,0.00,weatherlink.com 1.10,2013-02-26 18:48:00,
2013-02-26 14:03:00,36.5,28.0,29.75,East,80,3.0,14.0,72,0.00,,,0.00,weatherlink.com 1.10,2013-02-26 19:03:00,
2013-02-26 14:18:00,36.2,28.0,29.74,East,96,5.0,13.0,72,0.00,,,0.00,weatherlink.com 1.10,2013-02-26 19:18:00,
2013-02-26 14:33:00,36.0,28.0,29.73,East,79,6.0,16.0,74,0.00,,,0.00,weatherlink.com 1.10,2013-02-26 19:33:00,
2013-02-26 14:48:00,35.2,29.0,29.72,ESE,107,5.0,12.0,78,0.00,,,0.00,weatherlink.com 1.10,2013-02-26 19:48:00,
2013-02-26 15:03:00,34.6,30.0,29.71,SE,127,9.0,15.0,82,0.00,,,0.00,weatherlink.com 1.10,2013-02-26 20:03:00,
2013-02-26 15:18:00,34.4,30.0,29.70,East,94,2.0,12.0,84,0.00,,,0.00,weatherlink.com 1.10,2013-02-26 20:18:00,
2013-02-26 15:33:00,34.1,30.0,29.70,SE,129,4.0,15.0,86,0.01,,,0.01,weatherlink.com 1.10,2013-02-26 20:33:00,
2013-02-26 15:48:00,33.6,30.0,29.70,ENE,77,2.0,9.0,88,0.02,,,0.02,weatherlink.com 1.10,2013-02-26 20:48:00,
2013-02-26 16:03:00,33.3,30.0,29.70,West,262,1.0,9.0,89,0.05,,,0.05,weatherlink.com 1.10,2013-02-26 21:03:00,
2013-02-26 16:18:00,33.2,31.0,29.70,ENE,62,14.0,14.0,90,0.07,,,0.07,weatherlink.com 1.10,2013-02-26 21:18:00,
2013-02-26 16:34:00,33.2,31.0,29.71,East,93,2.0,8.0,91,0.08,,,0.09,weatherlink.com 1.10,2013-02-26 21:34:00,
2013-02-26 16:48:00,33.1,31.0,29.70,East,90,6.0,13.0,91,0.08,,,0.11,weatherlink.com 1.10,2013-02-26 21:48:00,
2013-02-26 17:03:00,32.9,31.0,29.70,ESE,122,1.0,7.0,92,0.07,,,0.12,weatherlink.com 1.10,2013-02-26 22:03:00,
2013-02-26 17:18:00,32.9,31.0,29.70,SE,127,4.0,10.0,92,0.05,,,0.12,weatherlink.com 1.10,2013-02-26 22:18:00,
2013-02-26 17:33:00,32.8,31.0,29.70,East,82,0.0,9.0,93,0.03,,,0.12,weatherlink.com 1.10,2013-02-26 22:33:00,
2013-02-26 17:48:00,32.5,31.0,29.69,SE,129,1.0,8.0,94,0.01,,,0.12,weatherlink.com 1.10,2013-02-26 22:48:00,
2013-02-26 18:03:00,32.3,31.0,29.68,ENE,63,2.0,7.0,95,0.00,,,0.12,weatherlink.com 1.10,2013-02-26 23:03:00,
2013-02-26 18:19:00,32.3,31.0,29.67,South,181,1.0,9.0,96,0.00,,,0.12,weatherlink.com 1.10,2013-02-26 23:19:00,
2013-02-26 18:33:00,32.3,31.0,29.66,NNE,15,0.0,6.0,96,0.00,,,0.12,weatherlink.com 1.10,2013-02-26 23:33:00,
2013-02-26 18:48:00,32.4,31.0,29.66,NNE,15,2.0,8.0,96,0.00,,,0.12,weatherlink.com 1.10,2013-02-26 23:48:00,
2013-02-26 19:18:00,32.5,32.0,29.66,SSE,163,2.0,9.0,96,0.00,,,0.12,weatherlink.com 1.10,2013-02-27 00:18:00,
2013-02-26 19:33:00,32.6,32.0,29.65,East,93,2.0,8.0,96,0.00,,,0.12,weatherlink.com 1.10,2013-02-27 00:33:00,
2013-02-26 19:48:00,32.7,32.0,29.65,ESE,110,3.0,8.0,96,0.00,,,0.12,weatherlink.com 1.10,2013-02-27 00:48:00,
2013-02-26 20:03:00,32.8,32.0,29.64,East,94,5.0,10.0,96,0.00,,,0.12,weatherlink.com 1.10,2013-02-27 01:03:00,
2013-02-26 20:18:00,32.7,32.0,29.63,South,179,4.0,6.0,96,0.00,,,0.12,weatherlink.com 1.10,2013-02-27 01:18:00,
2013-02-26 20:33:00,32.8,32.0,29.63,NE,39,4.0,8.0,96,0.00,,,0.12,weatherlink.com 1.10,2013-02-27 01:33:00,
2013-02-26 20:48:00,32.7,32.0,29.62,SE,143,0.0,6.0,96,0.00,,,0.12,weatherlink.com 1.10,2013-02-27 01:48:00,
2013-02-26 21:03:00,32.7,32.0,29.62,NE,39,2.0,11.0,96,0.00,,,0.12,weatherlink.com 1.10,2013-02-27 02:03:00,
2013-02-26 21:18:00,32.7,32.0,29.61,NNW,344,0.0,7.0,96,0.00,,,0.12,weatherlink.com 1.10,2013-02-27 02:18:00,
2013-02-26 21:34:00,32.5,32.0,29.61,SW,226,1.0,5.0,96,0.00,,,0.12,weatherlink.com 1.10,2013-02-27 02:34:00,
2013-02-26 21:49:00,32.5,32.0,29.60,ESE,107,0.0,4.0,97,0.00,,,0.12,weatherlink.com 1.10,2013-02-27 02:49:00,
2013-02-26 22:04:00,32.4,32.0,29.60,NNE,30,1.0,3.0,97,0.00,,,0.12,weatherlink.com 1.10,2013-02-27 03:04:00,
2013-02-26 22:19:00,32.4,32.0,29.59,ESE,107,0.0,3.0,97,0.00,,,0.12,weatherlink.com 1.10,2013-02-27 03:19:00,
2013-02-26 22:34:00,32.4,32.0,29.58,ENE,72,1.0,2.0,97,0.00,,,0.12,weatherlink.com 1.10,2013-02-27 03:34:00,
2013-02-26 22:49:00,32.4,32.0,29.57,ENE,66,0.0,2.0,97,0.00,,,0.12,weatherlink.com 1.10,2013-02-27 03:49:00,
2013-02-26 23:04:00,32.4,32.0,29.57,NNE,20,0.0,2.0,97,0.00,,,0.12,weatherlink.com 1.10,2013-02-27 04:04:00,
2013-02-26 23:19:00,32.4,32.0,29.56,ENE,58,0.0,2.0,97,0.00,,,0.12,weatherlink.com 1.10,2013-02-27 04:19:00,
2013-02-26 23:34:00,32.4,32.0,29.56,ESE,102,1.0,2.0,97,0.00,,,0.12,weatherlink.com 1.10,2013-02-27 04:34:00,
2013-02-26 23:49:00,32.5,32.0,29.55,East,79,0.0,3.0,97,0.00,,,0.12,weatherlink.com 1.10,2013-02-27 04:49:00,